RYR23ZR LPPR-LIPH
Flight info
| Callsign | RYR23ZR |
|---|---|
| Flight time | N/A |
| Altitude | 36000 |
| Route | BELDU DCT ADORO DCT FITSE DCT DGO DCT LPA DCT GOSVI DCT TOPTU DCT TOU DCT GAI DCT MEN DCT NINUN DCT LATAM DCT ROMAM/N0435F370 DCT ETIDO DCT NEDRU DCT RILIP DCT EMMEF DCT LAPRI DCT KUMIN/N0433F360 DCT MOGBO DCT NOBMI/N0337F190 L615 ADOSA |
| Aircraft | B738/M-SDE2E3FGHIRWXY/LB1 |
Departure
| Time | 2026-05-01 15:23 |
|---|---|
| Airport | Francisco de Sá Carneiro Airport (LPPR) |
Arrival
| Time | N/A |
|---|---|
| Airport | Treviso Airport (LIPH) |
| Time | Latitude | Longitude | Altitude | Speed | Heading |
|---|---|---|---|---|---|
| 2026-05-01 14:44 | 41.23509 | -8.67290 | 244 ft | 0 kts | 114° |
| 2026-05-01 15:14 | 41.23517 | -8.67317 | 243 ft | 4 kts | 115° |
| 2026-05-01 15:14 | 41.23529 | -8.67349 | 241 ft | 4 kts | 117° |
| 2026-05-01 15:14 | 41.23560 | -8.67404 | 238 ft | 4 kts | 155° |
| 2026-05-01 15:15 | 41.23568 | -8.67408 | 238 ft | 0 kts | 168° |
| 2026-05-01 15:17 | 41.23567 | -8.67408 | 237 ft | 0 kts | 168° |
| 2026-05-01 15:18 | 41.23492 | -8.67389 | 238 ft | 10 kts | 169° |
| 2026-05-01 15:18 | 41.23417 | -8.67370 | 238 ft | 11 kts | 169° |
| 2026-05-01 15:19 | 41.23313 | -8.67567 | 234 ft | 7 kts | 259° |
| 2026-05-01 15:19 | 41.23310 | -8.67586 | 234 ft | 0 kts | 259° |
| 2026-05-01 15:22 | 41.23300 | -8.67652 | 239 ft | 9 kts | 258° |
| 2026-05-01 15:22 | 41.23306 | -8.67726 | 237 ft | 9 kts | 321° |
| 2026-05-01 15:22 | 41.23391 | -8.67754 | 236 ft | 30 kts | 348° |
| 2026-05-01 15:23 | 41.23803 | -8.67860 | 224 ft | 98 kts | 349° |
| 2026-05-01 15:23 | 41.24674 | -8.68089 | 205 ft | 158 kts | 348° |
| 2026-05-01 15:23 | 41.25800 | -8.68365 | 833 ft | 161 kts | 347° |
| 2026-05-01 15:23 | 41.26950 | -8.68673 | 1451 ft | 180 kts | 345° |
| 2026-05-01 15:24 | 41.28291 | -8.69054 | 1773 ft | 210 kts | 344° |
| 2026-05-01 15:24 | 41.29771 | -8.69506 | 2094 ft | 230 kts | 345° |
| 2026-05-01 15:24 | 41.31430 | -8.69985 | 2291 ft | 255 kts | 346° |
| 2026-05-01 15:24 | 41.33181 | -8.70479 | 2830 ft | 268 kts | 346° |
| 2026-05-01 15:25 | 41.35058 | -8.70976 | 3462 ft | 281 kts | 348° |
| 2026-05-01 15:25 | 41.37000 | -8.71479 | 4387 ft | 279 kts | 348° |
| 2026-05-01 15:25 | 41.38891 | -8.71688 | 5251 ft | 279 kts | 9° |
| 2026-05-01 15:25 | 41.40702 | -8.70774 | 5961 ft | 281 kts | 37° |
| 2026-05-01 15:26 | 41.42002 | -8.68877 | 6730 ft | 278 kts | 65° |
| 2026-05-01 15:26 | 41.42570 | -8.66434 | 7411 ft | 278 kts | 86° |
| 2026-05-01 15:26 | 41.42698 | -8.63855 | 8118 ft | 280 kts | 90° |
| 2026-05-01 15:26 | 41.42772 | -8.61243 | 8842 ft | 285 kts | 91° |
| 2026-05-01 15:27 | 41.42842 | -8.58574 | 9534 ft | 291 kts | 91° |
| 2026-05-01 15:27 | 41.42915 | -8.55865 | 10226 ft | 295 kts | 91° |
| 2026-05-01 15:27 | 41.42993 | -8.53060 | 10536 ft | 314 kts | 91° |
| 2026-05-01 15:28 | 41.43174 | -8.46941 | 11359 ft | 340 kts | 91° |
| 2026-05-01 15:28 | 41.43274 | -8.43773 | 12032 ft | 344 kts | 91° |
| 2026-05-01 15:28 | 41.43378 | -8.40569 | 12746 ft | 348 kts | 91° |
| 2026-05-01 15:29 | 41.43585 | -8.34041 | 14108 ft | 357 kts | 92° |
| 2026-05-01 15:29 | 41.43690 | -8.30709 | 14748 ft | 362 kts | 92° |
| 2026-05-01 15:29 | 41.43901 | -8.23954 | 16180 ft | 367 kts | 92° |
| 2026-05-01 15:30 | 41.44112 | -8.17059 | 17492 ft | 376 kts | 92° |
| 2026-05-01 15:31 | 41.44534 | -8.02843 | 19826 ft | 393 kts | 92° |
| 2026-05-01 15:31 | 41.44743 | -7.95542 | 20918 ft | 401 kts | 92° |
| 2026-05-01 15:32 | 41.44954 | -7.88030 | 21976 ft | 409 kts | 92° |
| 2026-05-01 15:32 | 41.45167 | -7.80383 | 22879 ft | 417 kts | 94° |
| 2026-05-01 15:33 | 41.45436 | -7.68607 | 24240 ft | 431 kts | 92° |
| 2026-05-01 15:34 | 41.45791 | -7.56528 | 25416 ft | 441 kts | 92° |